Houtman — QS046Q — position and weather

sailwx.info

Track history (hours):
 
Tides and Currents Weather Stations Pressure Air Temp Water Temp Dewpoint Dewpoint Depression Visibility Wind Speed Wind Dir Waves Ship Positions

Houtman

Last reported at 2018-Apr-25 06:31 UTC. Time now 2018-Apr-25 06:56 UTC.
Position S 27°11' E 153°06'.

Length 15 m.

Type: Sailing vessel. MMSI: 503409200.

Date/timePositionNaut miles runAvg speedWind from/ knotsBaromVisibWave heightAir tempDewpointWater temp
2018-Apr-25 06:31S 27°11' E 153°06'3 5.5
2018-Apr-25 05:57S 27°08' E 153°07'1 1.6
2018-Apr-25 05:30S 27°08' E 153°07'1 2.7
2018-Apr-25 05:00S 27°09' E 153°06'1 2.9
2018-Apr-25 04:31S 27°09' E 153°05'1 1.9
2018-Apr-25 03:58S 27°09' E 153°04'2 4.3
2018-Apr-25 03:28S 27°11' E 153°06'1 2.6
2018-Apr-25 02:58S 27°12' E 153°06'  
2018-Apr-21 05:40S 27°13' E 153°05'1 3.4
2018-Apr-21 05:30S 27°12' E 153°06'1 2.1
2018-Apr-21 05:01S 27°11' E 153°05'3 5.3
2018-Apr-21 04:30S 27°09' E 153°05'2 4.0
2018-Apr-21 04:00S 27°09' E 153°07'3 5.8
2018-Apr-21 03:30S 27°11' E 153°06'1 1.2
2018-Apr-21 02:58S 27°12' E 153°06'  
2018-Apr-18 05:41S 27°13' E 153°05'0 2.1
2018-Apr-18 05:30S 27°12' E 153°06'2 3.4
2018-Apr-18 04:58S 27°11' E 153°05'2 3.9
2018-Apr-18 04:30S 27°09' E 153°04'3 6.1
2018-Apr-18 04:00S 27°08' E 153°07'4 7.3
2018-Apr-18 03:30S 27°11' E 153°05'1 1.3
2018-Apr-18 03:00S 27°12' E 153°06'  
Track history (hours):
 
Tides and Currents Weather Stations Pressure Air Temp Water Temp Dewpoint Dewpoint Depression Visibility Wind Speed Wind Dir Waves Ship Positions

Houtman

Last reported at 2018-Apr-25 06:31 UTC. Time now 2018-Apr-25 06:56 UTC.
Position S 27°11' E 153°06'.

Length 15 m.

Type: Sailing vessel. MMSI: 503409200.

Date/timePositionNaut miles runAvg speedWind from/ knotsBaromVisibWave heightAir tempDewpointWater temp
2018-Apr-25 06:31S 27°11' E 153°06'3 5.5
2018-Apr-25 05:57S 27°08' E 153°07'1 1.6
2018-Apr-25 05:30S 27°08' E 153°07'1 2.7
2018-Apr-25 05:00S 27°09' E 153°06'1 2.9
2018-Apr-25 04:31S 27°09' E 153°05'1 1.9
2018-Apr-25 03:58S 27°09' E 153°04'2 4.3
2018-Apr-25 03:28S 27°11' E 153°06'1 2.6
2018-Apr-25 02:58S 27°12' E 153°06'  
2018-Apr-21 05:40S 27°13' E 153°05'1 3.4
2018-Apr-21 05:30S 27°12' E 153°06'1 2.1
2018-Apr-21 05:01S 27°11' E 153°05'3 5.3
2018-Apr-21 04:30S 27°09' E 153°05'2 4.0
2018-Apr-21 04:00S 27°09' E 153°07'3 5.8
2018-Apr-21 03:30S 27°11' E 153°06'1 1.2
2018-Apr-21 02:58S 27°12' E 153°06'  
2018-Apr-18 05:41S 27°13' E 153°05'0 2.1
2018-Apr-18 05:30S 27°12' E 153°06'2 3.4
2018-Apr-18 04:58S 27°11' E 153°05'2 3.9
2018-Apr-18 04:30S 27°09' E 153°04'3 6.1
2018-Apr-18 04:00S 27°08' E 153°07'4 7.3
2018-Apr-18 03:30S 27°11' E 153°05'1 1.3
2018-Apr-18 03:00S 27°12' E 153°06'  

Dump ship's entire track history